createdAt,value
2019-04-26T00:00:28.143Z,9.10
2019-04-26T00:05:35.464Z,8.33
2019-04-26T00:10:40.896Z,9.07
2019-04-26T00:15:50.075Z,9.43
2019-04-26T00:20:54.810Z,8.57
2019-04-26T00:25:59.483Z,8.70
2019-04-26T00:31:04.052Z,9.40
2019-04-26T00:36:08.662Z,9.47
2019-04-26T00:41:14.107Z,9.90
2019-04-26T00:46:20.924Z,9.70
2019-04-26T00:51:25.634Z,9.33
2019-04-26T00:56:31.155Z,9.43
2019-04-26T01:01:37.787Z,8.73
2019-04-26T01:06:43.952Z,9.20
2019-04-26T01:11:48.508Z,9.23
2019-04-26T01:16:52.998Z,8.90
2019-04-26T01:22:00.559Z,8.83
2019-04-26T01:27:06.556Z,9.30
2019-04-26T01:32:12.851Z,8.60
2019-04-26T01:37:19.182Z,8.90
2019-04-26T01:42:28.805Z,9.13
2019-04-26T01:47:33.610Z,9.00
2019-04-26T01:52:38.402Z,8.90
2019-04-26T01:57:43.510Z,8.70
2019-04-26T02:02:58.286Z,8.90
2019-04-26T02:08:04.222Z,8.50
2019-04-26T02:13:08.708Z,8.35
2019-04-26T02:18:13.180Z,8.77
2019-04-26T02:23:37.645Z,8.60
2019-04-26T02:28:42.494Z,8.70
2019-04-26T02:33:47.022Z,8.60
2019-04-26T02:38:54.651Z,8.53
2019-04-26T02:44:02.168Z,8.90
2019-04-26T02:49:24.585Z,8.60
2019-04-26T02:54:47.119Z,9.27
2019-04-26T02:59:54.641Z,9.73
2019-04-26T03:05:01.589Z,9.07
2019-04-26T03:10:08.948Z,8.90
2019-04-26T03:15:19.117Z,9.57
2019-04-26T03:20:36.326Z,8.37
2019-04-26T03:25:55.564Z,8.87
2019-04-26T03:31:24.307Z,9.13
2019-04-26T03:36:53.351Z,8.67
2019-04-26T03:42:17.497Z,8.63
2019-04-26T03:47:25.179Z,8.90
2019-04-26T03:52:58.317Z,8.43
2019-04-26T03:58:29.715Z,8.50
2019-04-26T04:03:58.037Z,8.87
2019-04-26T04:09:10.007Z,8.50
2019-04-26T04:14:32.391Z,8.73
2019-04-26T04:19:47.519Z,8.27
2019-04-26T04:25:04.274Z,9.00
2019-04-26T04:30:28.431Z,8.23
2019-04-26T04:35:35.998Z,8.23
2019-04-26T04:41:11.977Z,8.63
2019-04-26T04:46:29.866Z,8.80
2019-04-26T04:51:37.570Z,8.53
2019-04-26T04:56:45.727Z,8.73
2019-04-26T05:02:21.833Z,8.67
2019-04-26T05:07:50.175Z,8.70
2019-04-26T05:13:09.572Z,8.57
2019-04-26T05:18:34.888Z,8.70
2019-04-26T05:23:57.749Z,8.43
2019-04-26T05:29:40.354Z,8.37
2019-04-26T05:35:23.084Z,8.93
2019-04-26T05:40:49.483Z,9.07
2019-04-26T05:46:34.201Z,8.03
2019-04-26T05:51:50.885Z,8.20
2019-04-26T05:57:12.096Z,8.83
2019-04-26T06:02:39.512Z,7.23
2019-04-26T06:07:52.241Z,7.50
2019-04-26T06:13:04.764Z,7.50
2019-04-26T06:18:32.725Z,6.57
2019-04-26T06:23:53.822Z,6.87
2019-04-26T06:29:05.347Z,6.47
2019-04-26T06:34:20.072Z,6.57
2019-04-26T06:39:33.291Z,7.03
2019-04-26T06:44:45.620Z,6.33
2019-04-26T06:50:16.220Z,6.33
2019-04-26T06:55:23.824Z,6.87
2019-04-26T07:01:03.564Z,6.00
2019-04-26T07:06:14.240Z,6.33
2019-04-26T07:11:43.140Z,6.50
2019-04-26T07:16:50.702Z,5.77
2019-04-26T07:22:17.785Z,5.73
2019-04-26T07:27:34.168Z,5.63
2019-04-26T07:32:56.936Z,6.00
2019-04-26T07:38:54.742Z,5.77
2019-04-26T07:44:21.571Z,6.10
2019-04-26T07:49:34.747Z,5.13
2019-04-26T07:55:15.847Z,6.97
2019-04-26T08:00:27.868Z,5.62
2019-04-26T08:05:49.143Z,6.10
2019-04-26T08:11:04.570Z,5.50
2019-04-26T08:16:24.838Z,5.67
2019-04-26T08:21:33.569Z,6.73
2019-04-26T08:26:41.295Z,6.53
2019-04-26T08:31:48.942Z,7.30
2019-04-26T08:37:01.755Z,6.23
2019-04-26T08:42:12.062Z,5.30
2019-04-26T08:47:27.596Z,4.93
2019-04-26T08:52:35.474Z,7.33
2019-04-26T08:57:42.582Z,6.43
2019-04-26T09:03:11.692Z,5.67
2019-04-26T09:08:17.846Z,7.50
2019-04-26T09:13:25.198Z,5.33
2019-04-26T09:18:42.079Z,7.53
2019-04-26T09:23:53.065Z,6.03
2019-04-26T09:28:59.345Z,5.90
2019-04-26T09:34:10.428Z,5.80
2019-04-26T09:39:15.900Z,4.83
2019-04-26T09:44:33.950Z,6.90
2019-04-26T09:49:41.170Z,7.23
2019-04-26T09:54:45.986Z,7.57
2019-04-26T09:59:51.853Z,8.77
2019-04-26T10:04:58.036Z,7.50
2019-04-26T10:10:02.785Z,5.07
2019-04-26T10:15:10.103Z,5.50
2019-04-26T10:20:15.192Z,4.45
2019-04-26T10:25:19.997Z,4.73
2019-04-26T10:30:24.860Z,4.17
2019-04-26T10:35:29.538Z,5.10
2019-04-26T10:40:35.629Z,4.27
2019-04-26T10:45:40.634Z,6.93
2019-04-26T10:50:45.254Z,4.43
2019-04-26T10:55:54.267Z,5.00
2019-04-26T11:01:03.686Z,4.97
2019-04-26T11:06:08.208Z,4.13
2019-04-26T11:11:12.897Z,4.33
2019-04-26T11:16:17.506Z,4.30
2019-04-26T11:21:22.470Z,4.25
2019-04-26T11:26:27.124Z,5.60
2019-04-26T11:31:31.837Z,4.35
2019-04-26T11:36:40.116Z,4.12
2019-04-26T11:41:42.681Z,5.65
2019-04-26T11:46:47.324Z,5.17
2019-04-26T11:51:51.763Z,4.65
2019-04-26T11:56:56.265Z,3.62
2019-04-26T12:02:00.783Z,4.10
2019-04-26T12:07:12.855Z,3.83
2019-04-26T12:12:18.839Z,3.72
2019-04-26T12:17:23.372Z,3.80
2019-04-26T12:22:27.903Z,3.80
2019-04-26T12:27:32.507Z,4.42
2019-04-26T12:32:37.041Z,3.95
2019-04-26T12:37:41.644Z,4.25
2019-04-26T12:42:47.335Z,3.02
2019-04-26T12:47:56.329Z,3.05
2019-04-26T12:53:00.923Z,3.25
2019-04-26T12:58:05.981Z,3.20
2019-04-26T13:03:20.285Z,3.27
2019-04-26T13:08:18.805Z,3.67
2019-04-26T13:13:27.748Z,4.00
2019-04-26T13:18:32.468Z,3.87
2019-04-26T13:23:36.911Z,3.80
2019-04-26T13:28:41.401Z,3.35
2019-04-26T13:33:45.977Z,2.92
2019-04-26T13:38:50.413Z,2.90
2019-04-26T13:43:57.147Z,3.05
2019-04-26T13:49:02.904Z,3.00
2019-04-26T13:54:07.464Z,3.40
2019-04-26T13:59:12.008Z,2.90
2019-04-26T14:04:16.477Z,2.92
2019-04-26T14:09:21.017Z,2.65
2019-04-26T14:14:25.546Z,4.00
2019-04-26T14:19:30.107Z,3.95
2019-04-26T14:24:39.381Z,2.50
2019-04-26T14:29:43.927Z,3.00
2019-04-26T14:34:48.477Z,2.70
2019-04-26T14:39:55.284Z,2.80
2019-04-26T14:45:02.198Z,2.85
2019-04-26T14:50:14.247Z,6.30
2019-04-26T14:55:16.662Z,3.33
2019-04-26T15:00:28.735Z,2.93
2019-04-26T15:05:38.140Z,3.20
2019-04-26T15:10:48.800Z,3.20
2019-04-26T15:15:52.577Z,2.62
2019-04-26T15:20:58.700Z,4.25
2019-04-26T15:26:03.399Z,8.05
2019-04-26T15:31:07.859Z,4.30
2019-04-26T15:36:14.526Z,3.50
2019-04-26T15:41:25.712Z,3.37
2019-04-26T15:46:34.405Z,3.50
2019-04-26T15:51:40.484Z,3.92
2019-04-26T15:56:49.316Z,3.80
2019-04-26T16:01:56.108Z,4.40
2019-04-26T16:06:59.609Z,3.80
2019-04-26T16:12:04.535Z,9.90
2019-04-26T16:17:09.333Z,9.10
2019-04-26T16:22:13.958Z,12.70
2019-04-26T16:27:18.600Z,8.13
2019-04-26T16:32:37.555Z,6.03
2019-04-26T16:37:43.690Z,5.07
2019-04-26T16:42:55.117Z,5.67
2019-04-26T16:47:57.243Z,4.60
2019-04-26T16:53:01.703Z,5.53
2019-04-26T16:58:06.260Z,5.17
2019-04-26T17:03:10.879Z,5.90
2019-04-26T17:08:19.177Z,5.83
2019-04-26T17:13:30.083Z,5.03
2019-04-26T17:18:33.577Z,10.60
2019-04-26T17:23:49.517Z,6.90
2019-04-26T17:28:55.558Z,7.30
2019-04-26T17:34:00.486Z,6.17
2019-04-26T17:39:12.531Z,5.57
2019-04-26T17:44:21.365Z,5.80
2019-04-26T17:49:27.245Z,5.47
2019-04-26T17:54:44.116Z,5.20
2019-04-26T17:59:36.844Z,5.63
2019-04-26T18:04:43.022Z,5.87
2019-04-26T18:09:47.237Z,5.07
2019-04-26T18:14:52.560Z,5.43
2019-04-26T18:20:08.856Z,5.57
2019-04-26T18:25:14.719Z,6.83
2019-04-26T18:30:19.452Z,10.80
2019-04-26T18:35:24.213Z,16.83
2019-04-26T18:40:39.000Z,9.00
2019-04-26T18:45:36.834Z,8.83
2019-04-26T18:50:41.351Z,7.12
2019-04-26T18:55:51.100Z,6.10
2019-04-26T19:00:57.430Z,6.00
2019-04-26T19:06:05.547Z,5.77
2019-04-26T19:11:13.042Z,5.53
2019-04-26T19:16:19.689Z,5.80
2019-04-26T19:21:32.290Z,8.27
2019-04-26T19:26:35.309Z,8.83
2019-04-26T19:31:41.268Z,10.83
2019-04-26T19:36:46.643Z,10.50
2019-04-26T19:41:52.025Z,10.43
2019-04-26T19:47:04.966Z,10.27
2019-04-26T19:52:25.243Z,8.87
2019-04-26T19:57:43.314Z,9.20
2019-04-26T20:02:47.820Z,9.60
2019-04-26T20:07:52.478Z,8.67
2019-04-26T20:12:56.934Z,8.13
2019-04-26T20:18:03.706Z,8.00
2019-04-26T20:23:08.073Z,8.07
2019-04-26T20:28:14.100Z,8.43
2019-04-26T20:33:19.836Z,8.40
2019-04-26T20:38:24.455Z,8.70
2019-04-26T20:43:29.048Z,9.40
2019-04-26T20:48:35.251Z,9.13
2019-04-26T20:53:41.766Z,9.40
2019-04-26T20:58:47.359Z,8.77
2019-04-26T21:03:51.990Z,9.43
2019-04-26T21:08:59.059Z,7.97
2019-04-26T21:14:07.497Z,8.37
2019-04-26T21:19:12.802Z,7.93
2019-04-26T21:24:19.922Z,7.40
2019-04-26T21:29:24.452Z,7.80
2019-04-26T21:34:30.675Z,7.00
2019-04-26T21:39:44.198Z,7.53
2019-04-26T21:44:51.279Z,7.57
2019-04-26T21:49:58.785Z,7.70
2019-04-26T21:54:59.329Z,9.27
2019-04-26T22:00:06.826Z,8.70
2019-04-26T22:05:15.003Z,9.00
2019-04-26T22:10:26.846Z,10.00
2019-04-26T22:15:41.639Z,8.90
2019-04-26T22:20:54.036Z,7.33
2019-04-26T22:26:00.221Z,6.03
2019-04-26T22:31:13.099Z,5.57
2019-04-26T22:36:18.710Z,4.70
2019-04-26T22:41:24.369Z,4.60
2019-04-26T22:46:44.472Z,5.13
2019-04-26T22:51:37.307Z,4.13
2019-04-26T22:56:43.874Z,5.10
2019-04-26T23:01:48.955Z,4.00
2019-04-26T23:06:56.141Z,5.10
2019-04-26T23:12:04.065Z,4.53
2019-04-26T23:17:19.753Z,5.43
2019-04-26T23:22:30.766Z,6.23
2019-04-26T23:27:30.578Z,6.67
2019-04-26T23:32:35.013Z,5.57
2019-04-26T23:37:39.461Z,9.23
2019-04-26T23:42:47.546Z,11.70
2019-04-26T23:47:52.905Z,9.23
2019-04-26T23:52:57.592Z,12.57
2019-04-26T23:58:04.944Z,7.97
